createdAt,value
2019-04-06T00:01:12.940Z,28.65
2019-04-06T00:03:42.902Z,29.98
2019-04-06T00:06:12.973Z,26.07
2019-04-06T00:08:43.205Z,22.65
2019-04-06T00:11:13.752Z,22.58
2019-04-06T00:13:43.730Z,22.85
2019-04-06T00:16:14.903Z,22.52
2019-04-06T00:18:44.989Z,21.40
2019-04-06T00:21:15.307Z,21.45
2019-04-06T00:23:45.175Z,21.95
2019-04-06T00:26:15.233Z,21.87
2019-04-06T00:28:45.538Z,21.90
2019-04-06T00:31:17.238Z,22.58
2019-04-06T00:33:47.123Z,22.42
2019-04-06T00:36:17.380Z,22.27
2019-04-06T00:38:47.352Z,22.40
2019-04-06T00:41:17.420Z,22.40
2019-04-06T00:43:47.725Z,23.30
2019-04-06T00:46:17.674Z,24.75
2019-04-06T00:48:48.998Z,27.45
2019-04-06T00:51:19.008Z,22.63
2019-04-06T00:53:49.344Z,22.25
2019-04-06T00:56:19.529Z,25.00
2019-04-06T00:58:49.726Z,24.85
2019-04-06T01:01:19.893Z,25.43
2019-04-06T01:03:49.879Z,24.70
2019-04-06T01:06:20.278Z,27.17
2019-04-06T01:08:50.295Z,25.48
2019-04-06T01:11:20.270Z,24.32
2019-04-06T01:13:50.418Z,25.32
2019-04-06T01:16:20.712Z,26.35
2019-04-06T01:18:50.773Z,27.85
2019-04-06T01:21:21.027Z,26.00
2019-04-06T01:23:51.517Z,26.37
2019-04-06T01:26:21.741Z,26.35
2019-04-06T01:28:51.866Z,25.70
2019-04-06T01:31:21.809Z,24.77
2019-04-06T01:33:52.912Z,24.25
2019-04-06T01:36:22.902Z,26.40
2019-04-06T01:38:52.975Z,23.83
2019-04-06T01:41:23.314Z,23.10
2019-04-06T01:43:54.223Z,24.40
2019-04-06T01:46:24.538Z,24.47
2019-04-06T01:48:54.609Z,23.73
2019-04-06T01:51:24.669Z,23.20
2019-04-06T01:53:58.071Z,24.25
2019-04-06T01:56:28.459Z,24.77
2019-04-06T01:58:58.633Z,23.07
2019-04-06T02:01:33.335Z,22.87
2019-04-06T02:04:03.557Z,25.35
2019-04-06T02:06:33.566Z,25.55
2019-04-06T02:09:05.455Z,28.20
2019-04-06T02:11:35.377Z,28.87
2019-04-06T02:14:05.481Z,31.27
2019-04-06T02:16:36.384Z,35.78
2019-04-06T02:19:06.379Z,38.75
2019-04-06T02:21:36.398Z,34.45
2019-04-06T02:24:06.375Z,38.02
2019-04-06T02:26:36.357Z,37.65
2019-04-06T02:29:06.347Z,40.00
2019-04-06T02:31:47.661Z,37.90
2019-04-06T02:34:25.763Z,43.50
2019-04-06T02:37:09.245Z,46.58
2019-04-06T02:39:58.877Z,45.48
2019-04-06T02:42:32.965Z,54.60
2019-04-06T02:45:03.141Z,49.75
2019-04-06T02:47:33.313Z,49.45
2019-04-06T02:50:04.612Z,51.15
2019-04-06T02:52:34.695Z,47.78
2019-04-06T02:55:06.789Z,45.50
2019-04-06T02:57:36.978Z,45.43
2019-04-06T03:00:08.937Z,59.88
2019-04-06T03:02:39.306Z,54.55
2019-04-06T03:05:09.817Z,51.42
2019-04-06T03:07:39.861Z,48.05
2019-04-06T03:10:10.182Z,42.93
2019-04-06T03:12:40.454Z,41.75
2019-04-06T03:15:10.914Z,35.88
2019-04-06T03:17:41.245Z,35.52
2019-04-06T03:20:11.620Z,39.83
2019-04-06T03:22:41.894Z,45.98
2019-04-06T03:25:12.921Z,82.70
2019-04-06T03:27:43.036Z,98.55
2019-04-06T03:30:13.596Z,94.97
2019-04-06T03:32:43.658Z,99.25
2019-04-06T03:35:13.745Z,97.82
2019-04-06T03:37:43.992Z,101.25
2019-04-06T03:40:14.212Z,101.53
2019-04-06T03:42:44.155Z,91.32
2019-04-06T03:45:14.049Z,85.22
2019-04-06T03:47:44.105Z,89.05
2019-04-06T03:50:14.469Z,68.60
2019-04-06T03:52:44.773Z,76.12
2019-04-06T03:55:14.843Z,66.65
2019-04-06T03:57:45.086Z,53.20
2019-04-06T04:00:15.553Z,49.33
2019-04-06T04:02:46.158Z,51.18
2019-04-06T04:05:16.217Z,54.25
2019-04-06T04:07:46.587Z,59.15
2019-04-06T04:10:34.729Z,58.80
2019-04-06T04:13:05.628Z,65.05
2019-04-06T04:15:35.619Z,64.92
2019-04-06T04:18:06.169Z,67.25
2019-04-06T04:20:36.499Z,62.38
2019-04-06T04:23:06.539Z,63.05
2019-04-06T04:25:36.799Z,58.13
2019-04-06T04:28:06.843Z,53.15
2019-04-06T04:30:36.721Z,51.40
2019-04-06T04:33:06.863Z,47.70
2019-04-06T04:35:36.760Z,45.15
2019-04-06T04:38:07.363Z,42.25
2019-04-06T04:40:37.692Z,41.60
2019-04-06T04:43:07.959Z,38.33
2019-04-06T04:45:38.480Z,37.70
2019-04-06T04:48:08.874Z,35.28
2019-04-06T04:50:39.651Z,34.63
2019-04-06T04:53:09.641Z,34.23
2019-04-06T04:55:39.918Z,33.28
2019-04-06T04:58:10.233Z,31.90
2019-04-06T05:00:40.600Z,30.43
2019-04-06T05:03:10.546Z,30.80
2019-04-06T05:05:40.787Z,30.88
2019-04-06T05:08:10.888Z,32.30
2019-04-06T05:10:41.048Z,30.90
2019-04-06T05:13:11.117Z,28.98
2019-04-06T05:15:50.003Z,26.27
2019-04-06T05:18:20.380Z,23.73
2019-04-06T05:20:50.286Z,22.45
2019-04-06T05:23:20.544Z,23.30
2019-04-06T05:25:50.892Z,25.60
2019-04-06T05:28:20.950Z,21.97
2019-04-06T05:30:52.232Z,24.63
2019-04-06T05:33:22.280Z,22.62
2019-04-06T05:39:06.792Z,21.93
2019-04-06T05:42:08.106Z,21.80
2019-04-06T05:44:44.182Z,23.92
2019-04-06T05:50:29.268Z,23.42
2019-04-06T05:55:57.580Z,26.12
2019-04-06T05:58:51.562Z,22.60
2019-04-06T06:04:20.957Z,19.98
2019-04-06T06:09:52.597Z,21.37
2019-04-06T06:12:30.482Z,22.48
2019-04-06T06:15:02.865Z,19.12
2019-04-06T06:17:58.657Z,20.57
2019-04-06T06:23:34.309Z,21.07
2019-04-06T06:31:58.410Z,18.15
2019-04-06T06:34:58.558Z,19.32
2019-04-06T06:37:43.303Z,20.23
2019-04-06T06:40:28.366Z,18.57
2019-04-06T06:43:11.622Z,21.50
2019-04-06T06:45:42.267Z,20.57
2019-04-06T06:48:45.865Z,18.42
2019-04-06T06:51:28.457Z,20.48
2019-04-06T06:54:07.452Z,21.50
2019-04-06T06:56:59.924Z,20.45
2019-04-06T06:59:30.729Z,20.08
2019-04-06T07:04:37.664Z,19.17
2019-04-06T07:07:08.945Z,20.20
2019-04-06T07:09:38.972Z,19.30
2019-04-06T07:12:08.984Z,23.80
2019-04-06T07:14:39.022Z,30.62
2019-04-06T07:17:08.913Z,25.72
2019-04-06T07:19:38.973Z,22.02
2019-04-06T07:22:09.261Z,22.48
2019-04-06T07:24:40.535Z,27.02
2019-04-06T07:27:11.003Z,20.95
2019-04-06T07:29:41.191Z,21.50
2019-04-06T07:32:11.111Z,24.18
2019-04-06T07:34:41.195Z,20.02
2019-04-06T07:37:11.196Z,22.17
2019-04-06T07:39:41.626Z,21.82
2019-04-06T07:42:12.012Z,20.43
2019-04-06T07:44:42.391Z,19.85
2019-04-06T07:47:12.490Z,22.00
2019-04-06T07:49:42.470Z,21.82
2019-04-06T07:52:12.548Z,24.25
2019-04-06T07:54:42.552Z,26.68
2019-04-06T07:57:12.862Z,22.50
2019-04-06T07:59:43.194Z,22.82
2019-04-06T08:02:13.371Z,20.72
2019-04-06T08:04:43.722Z,23.83
2019-04-06T08:07:13.716Z,20.45
2019-04-06T08:09:43.802Z,21.42
2019-04-06T08:12:13.854Z,20.88
2019-04-06T08:14:44.060Z,21.02
2019-04-06T08:17:14.298Z,21.77
2019-04-06T08:19:44.445Z,21.48
2019-04-06T08:22:14.636Z,24.20
2019-04-06T08:24:44.608Z,21.57
2019-04-06T08:27:14.629Z,23.20
2019-04-06T08:29:44.632Z,19.85
2019-04-06T08:32:14.662Z,19.73
2019-04-06T08:34:45.029Z,18.87
2019-04-06T08:37:15.023Z,17.87
2019-04-06T08:39:45.610Z,18.60
2019-04-06T08:42:15.550Z,18.85
2019-04-06T08:44:45.949Z,18.35
2019-04-06T08:47:16.172Z,18.98
2019-04-06T08:49:46.362Z,16.50
2019-04-06T08:52:16.735Z,18.12
2019-04-06T08:54:46.976Z,17.52
2019-04-06T08:57:59.157Z,18.92
2019-04-06T09:00:29.283Z,31.75
2019-04-06T09:02:59.463Z,19.20
2019-04-06T09:05:31.163Z,17.50
2019-04-06T09:08:01.480Z,19.00
2019-04-06T09:10:31.846Z,18.98
2019-04-06T09:13:02.774Z,17.87
2019-04-06T09:15:33.041Z,20.68
2019-04-06T09:18:03.427Z,21.20
2019-04-06T09:20:33.882Z,16.97
2019-04-06T09:23:05.803Z,16.30
2019-04-06T09:25:36.041Z,16.55
2019-04-06T09:28:06.369Z,15.30
2019-04-06T09:30:36.435Z,16.07
2019-04-06T09:33:06.464Z,22.15
2019-04-06T09:35:36.476Z,16.90
2019-04-06T09:38:08.009Z,16.57
2019-04-06T09:40:38.282Z,33.95
2019-04-06T09:43:08.311Z,14.87
2019-04-06T09:45:41.580Z,15.50
2019-04-06T09:48:13.671Z,11.08
2019-04-06T09:50:45.614Z,25.60
2019-04-06T09:53:20.177Z,15.98
2019-04-06T09:55:51.962Z,15.03
2019-04-06T10:01:00.479Z,15.83
2019-04-06T10:03:47.755Z,13.15
2019-04-06T10:06:36.132Z,14.60
2019-04-06T10:09:09.939Z,14.70
2019-04-06T10:11:41.888Z,12.95
2019-04-06T10:14:29.674Z,15.88
2019-04-06T10:17:04.128Z,14.53
2019-04-06T10:19:38.695Z,14.23
2019-04-06T10:22:26.783Z,13.58
2019-04-06T10:25:01.374Z,12.63
2019-04-06T10:27:35.659Z,13.30
2019-04-06T10:30:25.963Z,14.07
2019-04-06T10:33:01.013Z,14.68
2019-04-06T10:35:41.988Z,13.60
2019-04-06T10:38:22.633Z,12.88
2019-04-06T10:41:10.208Z,13.32
2019-04-06T10:43:50.533Z,14.83
2019-04-06T10:46:37.925Z,12.85
2019-04-06T10:49:12.716Z,12.80
2019-04-06T10:51:47.274Z,13.32
2019-04-06T10:54:22.018Z,12.43
2019-04-06T10:56:53.603Z,14.03
2019-04-06T10:59:25.510Z,12.85
2019-04-06T11:01:57.968Z,13.83
2019-04-06T11:04:29.948Z,13.55
2019-04-06T11:07:02.017Z,12.58
2019-04-06T11:09:37.253Z,12.33
2019-04-06T11:12:27.316Z,13.25
2019-04-06T11:15:15.378Z,13.67
2019-04-06T11:17:58.784Z,11.70
2019-04-06T11:20:45.913Z,13.43
2019-04-06T11:23:26.459Z,9.88
2019-04-06T11:26:10.753Z,12.78
2019-04-06T11:28:55.101Z,12.90
2019-04-06T11:31:26.686Z,13.18
2019-04-06T11:34:13.544Z,12.33
2019-04-06T11:36:45.440Z,13.20
2019-04-06T11:41:59.845Z,13.88
2019-04-06T11:44:34.100Z,14.07
2019-04-06T11:47:06.202Z,12.60
2019-04-06T11:49:53.678Z,14.05
2019-04-06T11:52:25.343Z,12.85
2019-04-06T11:57:30.517Z,12.93
2019-04-06T12:00:02.452Z,14.03
2019-04-06T12:02:50.793Z,14.65
2019-04-06T12:05:38.836Z,12.88
2019-04-06T12:08:10.584Z,12.00
2019-04-06T12:10:44.855Z,11.73
2019-04-06T12:13:22.585Z,15.85
2019-04-06T12:15:56.678Z,12.95
2019-04-06T12:18:34.531Z,13.18
2019-04-06T12:21:15.047Z,13.68
2019-04-06T12:23:51.951Z,14.43
2019-04-06T12:26:23.484Z,17.62
2019-04-06T12:29:15.745Z,14.07
2019-04-06T12:32:03.979Z,13.80
2019-04-06T12:34:35.858Z,13.65
2019-04-06T12:37:10.369Z,13.65
2019-04-06T12:39:52.254Z,15.03
2019-04-06T12:42:34.466Z,14.87
2019-04-06T12:45:23.719Z,15.35
2019-04-06T12:47:55.461Z,11.48
2019-04-06T12:50:27.304Z,14.13
2019-04-06T12:53:11.438Z,15.38
2019-04-06T12:55:55.529Z,14.23
2019-04-06T12:58:39.649Z,14.58
2019-04-06T13:01:20.357Z,13.58
2019-04-06T13:03:51.930Z,15.40
2019-04-06T13:06:39.876Z,14.73
2019-04-06T13:09:20.527Z,17.10
2019-04-06T13:12:07.168Z,15.37
2019-04-06T13:14:41.215Z,15.58
2019-04-06T13:17:24.958Z,15.38
2019-04-06T13:20:14.650Z,14.70
2019-04-06T13:23:02.722Z,14.28
2019-04-06T13:25:52.496Z,17.77
2019-04-06T13:28:30.133Z,15.38
2019-04-06T13:31:10.469Z,16.75
2019-04-06T13:33:47.921Z,16.20
2019-04-06T13:36:21.102Z,15.72
2019-04-06T13:38:52.668Z,15.25
2019-04-06T13:43:58.362Z,16.23
2019-04-06T13:46:48.013Z,17.65
2019-04-06T13:49:19.895Z,16.45
2019-04-06T13:51:51.794Z,16.37
2019-04-06T13:54:25.998Z,15.65
2019-04-06T13:57:06.414Z,16.90
2019-04-06T13:59:54.665Z,15.08
2019-04-06T14:02:35.273Z,15.80
2019-04-06T14:05:08.458Z,16.65
2019-04-06T14:07:40.295Z,16.17
2019-04-06T14:10:23.650Z,13.50
2019-04-06T14:13:04.123Z,14.45
2019-04-06T14:15:51.872Z,14.47
2019-04-06T14:18:23.464Z,14.35
2019-04-06T14:21:10.009Z,14.73
2019-04-06T14:23:41.936Z,14.63
2019-04-06T14:26:20.072Z,15.18
2019-04-06T14:29:00.561Z,16.05
2019-04-06T14:31:41.187Z,14.25
2019-04-06T14:34:29.353Z,16.45
2019-04-06T14:37:10.459Z,12.07
2019-04-06T14:39:56.969Z,14.43
2019-04-06T14:42:44.968Z,15.60
2019-04-06T14:45:31.702Z,14.93
2019-04-06T14:48:03.211Z,17.95
2019-04-06T14:50:34.717Z,15.75
2019-04-06T14:53:15.666Z,15.83
2019-04-06T14:55:59.245Z,14.47
2019-04-06T14:58:31.012Z,16.42
2019-04-06T15:01:11.100Z,14.47
2019-04-06T15:03:42.773Z,8.80
2019-04-06T15:06:32.734Z,13.58
2019-04-06T15:09:21.032Z,15.03
2019-04-06T15:12:07.840Z,15.50
2019-04-06T15:14:49.786Z,15.45
2019-04-06T15:17:30.079Z,15.38
2019-04-06T15:20:04.830Z,16.23
2019-04-06T15:22:52.196Z,17.60
2019-04-06T15:25:30.092Z,15.08
2019-04-06T15:28:01.956Z,29.50
2019-04-06T15:33:22.373Z,34.03
2019-04-06T15:35:54.222Z,19.98
2019-04-06T15:38:25.861Z,15.60
2019-04-06T15:41:14.053Z,17.00
2019-04-06T15:43:45.689Z,17.10
2019-04-06T15:46:17.773Z,17.20
2019-04-06T15:49:01.480Z,23.45
2019-04-06T15:51:35.805Z,20.10
2019-04-06T15:54:24.730Z,21.10
2019-04-06T15:56:56.593Z,15.58
2019-04-06T15:59:31.031Z,26.50
2019-04-06T16:02:19.213Z,23.62
2019-04-06T16:04:50.809Z,24.80
2019-04-06T16:07:31.417Z,28.45
2019-04-06T16:09:59.216Z,20.65
2019-04-06T16:12:34.076Z,23.55
2019-04-06T16:15:22.602Z,16.65
2019-04-06T16:18:10.884Z,18.27
2019-04-06T16:20:42.604Z,18.07
2019-04-06T16:23:14.560Z,18.60
2019-04-06T16:28:19.585Z,15.68
2019-04-06T16:31:00.945Z,17.12
2019-04-06T16:33:39.241Z,17.67
2019-04-06T16:36:16.761Z,17.90
2019-04-06T16:38:51.454Z,15.85
2019-04-06T16:41:37.968Z,15.53
2019-04-06T16:44:23.607Z,15.72
2019-04-06T16:46:59.320Z,15.30
2019-04-06T16:49:34.044Z,16.27
2019-04-06T16:52:08.740Z,13.55
2019-04-06T16:54:46.393Z,16.67
2019-04-06T16:57:17.953Z,17.05
2019-04-06T17:00:02.469Z,17.07
2019-04-06T17:02:54.608Z,18.05
2019-04-06T17:05:33.985Z,17.52
2019-04-06T17:08:15.845Z,20.40
2019-04-06T17:10:47.780Z,17.10
2019-04-06T17:13:23.514Z,19.15
2019-04-06T17:16:18.317Z,19.70
2019-04-06T17:19:09.021Z,20.65
2019-04-06T17:21:47.864Z,22.95
2019-04-06T17:24:23.535Z,22.75
2019-04-06T17:27:03.647Z,21.25
2019-04-06T17:29:50.372Z,19.35
2019-04-06T17:32:35.434Z,18.80
2019-04-06T17:35:02.722Z,18.32
2019-04-06T17:37:39.129Z,19.05
2019-04-06T17:40:15.142Z,28.45
2019-04-06T17:42:58.321Z,34.73
2019-04-06T17:45:48.967Z,31.93
2019-04-06T17:48:40.221Z,33.73
2019-04-06T17:51:15.553Z,40.88
2019-04-06T17:54:02.893Z,45.70
2019-04-06T17:56:46.763Z,47.58
2019-04-06T17:59:34.080Z,43.75
2019-04-06T18:02:17.822Z,39.00
2019-04-06T18:04:56.550Z,39.42
2019-04-06T18:07:50.550Z,35.13
2019-04-06T18:10:23.093Z,37.90
2019-04-06T18:13:04.483Z,38.78
2019-04-06T18:15:44.570Z,36.40
2019-04-06T18:18:22.338Z,39.20
2019-04-06T18:20:58.461Z,38.25
2019-04-06T18:23:29.327Z,38.50
2019-04-06T18:26:06.679Z,31.02
2019-04-06T18:28:38.749Z,33.02
2019-04-06T18:31:29.135Z,40.40
2019-04-06T18:34:05.327Z,49.20
2019-04-06T18:36:39.030Z,47.58
2019-04-06T18:39:27.948Z,44.77
2019-04-06T18:41:58.037Z,63.35
2019-04-06T18:44:28.919Z,74.22
2019-04-06T18:46:59.145Z,72.25
2019-04-06T18:49:29.487Z,56.05
2019-04-06T18:51:59.729Z,42.55
2019-04-06T18:54:30.188Z,35.50
2019-04-06T18:57:06.113Z,32.85
2019-04-06T18:59:39.331Z,34.53
2019-04-06T19:02:10.996Z,36.90
2019-04-06T19:04:41.177Z,51.63
2019-04-06T19:07:11.404Z,52.83
2019-04-06T19:09:41.671Z,37.75
2019-04-06T19:12:11.975Z,35.40
2019-04-06T19:14:48.172Z,35.33
2019-04-06T19:17:18.771Z,36.80
2019-04-06T19:19:49.244Z,38.60
2019-04-06T19:22:19.389Z,38.70
2019-04-06T19:24:50.057Z,45.98
2019-04-06T19:27:20.601Z,51.45
2019-04-06T19:29:50.779Z,65.32
2019-04-06T19:32:21.309Z,92.30
2019-04-06T19:34:56.667Z,97.42
2019-04-06T19:37:26.950Z,93.17
2019-04-06T19:39:58.087Z,92.55
2019-04-06T19:42:39.671Z,79.60
2019-04-06T19:45:10.562Z,87.78
2019-04-06T19:47:44.345Z,83.52
2019-04-06T19:50:16.649Z,94.00
2019-04-06T19:52:58.512Z,64.47
2019-04-06T19:55:51.091Z,66.25
2019-04-06T19:58:28.292Z,52.27
2019-04-06T20:00:58.928Z,42.70
2019-04-06T20:03:35.091Z,46.23
2019-04-06T20:06:01.593Z,36.20
2019-04-06T20:08:31.937Z,33.95
2019-04-06T20:11:02.338Z,33.65
2019-04-06T20:13:32.566Z,32.85
2019-04-06T20:16:03.054Z,31.37
2019-04-06T20:18:33.531Z,33.95
2019-04-06T20:21:06.930Z,33.85
2019-04-06T20:23:39.050Z,35.30
2019-04-06T20:26:09.152Z,34.75
2019-04-06T20:28:40.061Z,39.15
2019-04-06T20:31:11.555Z,39.13
2019-04-06T20:33:50.183Z,46.58
2019-04-06T20:36:13.982Z,42.27
2019-04-06T20:38:44.112Z,43.08
2019-04-06T20:41:14.567Z,43.63
2019-04-06T20:43:44.930Z,49.65
2019-04-06T20:46:15.279Z,97.05
2019-04-06T20:48:47.926Z,73.78
2019-04-06T20:51:18.161Z,89.10
2019-04-06T20:53:48.605Z,99.00
2019-04-06T20:56:18.823Z,119.67
2019-04-06T20:58:49.180Z,97.12
2019-04-06T21:01:19.109Z,95.07
2019-04-06T21:03:59.885Z,103.32
2019-04-06T21:08:50.828Z,81.37
2019-04-06T21:11:21.194Z,75.00
2019-04-06T21:13:51.694Z,81.87
2019-04-06T21:16:21.944Z,82.08
2019-04-06T21:18:54.717Z,75.80
2019-04-06T21:21:26.986Z,72.17
2019-04-06T21:26:28.998Z,75.70
2019-04-06T21:28:59.569Z,71.72
2019-04-06T21:31:30.894Z,73.40
2019-04-06T21:34:10.488Z,70.83
2019-04-06T21:36:35.123Z,73.05
2019-04-06T21:39:08.303Z,77.17
2019-04-06T21:41:41.848Z,83.37
2019-04-06T21:44:16.590Z,79.20
2019-04-06T21:46:51.619Z,58.40
2019-04-06T21:49:25.691Z,44.77
2019-04-06T21:51:59.930Z,42.13
2019-04-06T21:54:39.734Z,38.13
2019-04-06T21:57:16.533Z,39.05
2019-04-06T21:59:59.344Z,38.92
2019-04-06T22:02:36.019Z,37.65
2019-04-06T22:05:12.896Z,43.48
2019-04-06T22:07:56.141Z,41.68
2019-04-06T22:10:34.468Z,46.88
2019-04-06T22:13:08.355Z,48.48
2019-04-06T22:18:25.957Z,45.52
2019-04-06T22:20:56.990Z,37.55
2019-04-06T22:26:29.620Z,34.60
2019-04-06T22:29:11.838Z,36.48
2019-04-06T22:31:47.998Z,32.40
2019-04-06T22:34:38.853Z,32.38
2019-04-06T22:37:17.858Z,36.13
2019-04-06T22:40:05.840Z,36.58
2019-04-06T22:42:41.434Z,31.52
2019-04-06T22:45:24.239Z,32.23
2019-04-06T22:47:55.910Z,32.93
2019-04-06T22:50:34.143Z,35.65
2019-04-06T22:53:14.431Z,34.50
2019-04-06T22:55:59.567Z,34.05
2019-04-06T22:58:30.316Z,31.95
2019-04-06T23:01:09.813Z,29.87
2019-04-06T23:04:06.460Z,28.98
2019-04-06T23:06:39.128Z,30.17
2019-04-06T23:09:10.224Z,29.50
2019-04-06T23:11:42.158Z,29.85
2019-04-06T23:14:12.892Z,29.75
2019-04-06T23:19:24.287Z,31.23
2019-04-06T23:22:01.107Z,32.98
2019-04-06T23:24:39.777Z,33.83
2019-04-06T23:27:08.490Z,36.93
2019-04-06T23:32:34.987Z,39.00
2019-04-06T23:35:07.198Z,41.73
2019-04-06T23:37:54.336Z,41.30
2019-04-06T23:40:27.290Z,36.53
2019-04-06T23:42:59.278Z,32.95
2019-04-06T23:45:30.010Z,32.00
2019-04-06T23:48:00.365Z,30.30
2019-04-06T23:50:37.405Z,32.13
2019-04-06T23:53:09.148Z,32.53
2019-04-06T23:55:39.809Z,32.15
2019-04-06T23:58:37.463Z,36.28
